createdAt,value
2016-12-15T00:00:07.288Z,1016.76
2016-12-15T00:01:07.704Z,1016.77
2016-12-15T00:02:07.279Z,1016.78
2016-12-15T00:03:07.291Z,1016.76
2016-12-15T00:04:07.563Z,1016.76
2016-12-15T00:05:07.478Z,1016.73
2016-12-15T00:06:07.318Z,1016.72
2016-12-15T00:07:07.384Z,1016.73
2016-12-15T00:08:07.347Z,1016.77
2016-12-15T00:09:07.554Z,1016.72
2016-12-15T00:10:07.572Z,1016.74
2016-12-15T00:11:08.139Z,1016.73
2016-12-15T00:12:08.103Z,1016.72
2016-12-15T00:13:07.533Z,1016.69
2016-12-15T00:14:07.575Z,1016.69
2016-12-15T00:15:07.808Z,1016.71
2016-12-15T00:16:07.609Z,1016.69
2016-12-15T00:17:07.581Z,1016.68
2016-12-15T00:18:07.604Z,1016.65
2016-12-15T00:19:07.615Z,1016.68
2016-12-15T00:20:07.605Z,1016.64
2016-12-15T00:21:07.783Z,1016.65
2016-12-15T00:22:07.655Z,1016.65
2016-12-15T00:23:07.693Z,1016.66
2016-12-15T00:24:07.596Z,1016.69
2016-12-15T00:25:07.821Z,1016.73
2016-12-15T00:26:07.824Z,1016.7
2016-12-15T00:27:07.838Z,1016.68
2016-12-15T00:28:08.169Z,1016.74
2016-12-15T00:29:07.794Z,1016.7
2016-12-15T00:30:08.146Z,1016.74
2016-12-15T00:31:08.202Z,1016.71
2016-12-15T00:32:07.716Z,1016.71
2016-12-15T00:33:07.958Z,1016.68
2016-12-15T00:34:07.808Z,1016.67
2016-12-15T00:35:08.158Z,1016.66
2016-12-15T00:36:08.073Z,1016.67
2016-12-15T00:37:08.272Z,1016.65
2016-12-15T00:38:08.154Z,1016.66
2016-12-15T00:39:08.081Z,1016.63
2016-12-15T00:40:08.145Z,1016.64
2016-12-15T00:41:08.081Z,1016.62
2016-12-15T00:42:07.863Z,1016.6
2016-12-15T00:43:08.108Z,1016.61
2016-12-15T00:44:08.153Z,1016.59
2016-12-15T00:45:08.391Z,1016.55
2016-12-15T00:46:08.545Z,1016.57
2016-12-15T00:47:08.131Z,1016.58
2016-12-15T00:48:08.098Z,1016.55
2016-12-15T00:49:08.337Z,1016.55
2016-12-15T00:50:08.364Z,1016.55
2016-12-15T00:51:08.258Z,1016.59
2016-12-15T00:52:08.483Z,1016.58
2016-12-15T00:53:08.515Z,1016.57
2016-12-15T00:54:08.139Z,1016.56
2016-12-15T00:55:08.667Z,1016.55
2016-12-15T00:56:08.786Z,1016.58
2016-12-15T00:57:08.287Z,1016.55
2016-12-15T00:58:08.501Z,1016.52
2016-12-15T00:59:08.445Z,1016.52
2016-12-15T01:00:08.453Z,1016.53
2016-12-15T01:01:08.432Z,1016.53
2016-12-15T01:02:08.428Z,1016.51
2016-12-15T01:03:08.567Z,1016.48
2016-12-15T01:04:08.354Z,1016.53
2016-12-15T01:05:08.430Z,1016.54
2016-12-15T01:06:08.393Z,1016.52
2016-12-15T01:07:08.573Z,1016.52
2016-12-15T01:08:08.530Z,1016.52
2016-12-15T01:09:08.575Z,1016.55
2016-12-15T01:10:08.591Z,1016.53
2016-12-15T01:11:08.424Z,1016.55
2016-12-15T01:12:08.595Z,1016.59
2016-12-15T01:13:08.441Z,1016.58
2016-12-15T01:14:08.520Z,1016.63
2016-12-15T01:15:08.631Z,1016.6
2016-12-15T01:16:08.569Z,1016.58
2016-12-15T01:17:08.603Z,1016.6
2016-12-15T01:18:08.604Z,1016.61
2016-12-15T01:19:08.439Z,1016.57
2016-12-15T01:20:08.389Z,1016.56
2016-12-15T01:21:08.632Z,1016.55
2016-12-15T01:22:08.463Z,1016.59
2016-12-15T01:23:08.651Z,1016.57
2016-12-15T01:24:08.705Z,1016.6
2016-12-15T01:25:08.721Z,1016.65
2016-12-15T01:26:08.535Z,1016.64
2016-12-15T01:27:09.396Z,1016.63
2016-12-15T01:28:08.798Z,1016.65
2016-12-15T01:29:08.826Z,1016.65
2016-12-15T01:30:08.814Z,1016.64
2016-12-15T01:31:08.768Z,1016.63
2016-12-15T01:32:08.885Z,1016.7
2016-12-15T01:33:08.937Z,1016.71
2016-12-15T01:34:08.871Z,1016.73
2016-12-15T01:35:08.891Z,1016.71
2016-12-15T01:36:09.058Z,1016.72
2016-12-15T01:37:08.799Z,1016.74
2016-12-15T01:38:09.073Z,1016.77
2016-12-15T01:39:08.752Z,1016.78
2016-12-15T01:40:08.844Z,1016.79
2016-12-15T01:41:08.833Z,1016.79
2016-12-15T01:42:08.994Z,1016.77
2016-12-15T01:43:08.877Z,1016.8
2016-12-15T01:44:08.969Z,1016.76
2016-12-15T01:45:09.213Z,1016.76
2016-12-15T01:46:09.014Z,1016.78
2016-12-15T01:47:09.247Z,1016.79
2016-12-15T01:48:08.954Z,1016.81
2016-12-15T01:49:08.991Z,1016.82
2016-12-15T01:50:08.988Z,1016.79
2016-12-15T01:51:09.149Z,1016.83
2016-12-15T01:52:08.914Z,1016.85
2016-12-15T01:53:09.126Z,1016.8
2016-12-15T01:54:09.571Z,1016.84
2016-12-15T01:55:09.516Z,1016.83
2016-12-15T01:56:09.475Z,1016.85
2016-12-15T01:57:09.040Z,1016.83
2016-12-15T01:58:09.006Z,1016.84
2016-12-15T01:59:09.134Z,1016.83
2016-12-15T02:00:09.376Z,1016.84
2016-12-15T02:01:09.147Z,1016.85
2016-12-15T02:02:09.276Z,1016.85
2016-12-15T02:03:09.319Z,1016.83
2016-12-15T02:04:09.219Z,1016.83
2016-12-15T02:05:09.318Z,1016.85
2016-12-15T02:06:09.546Z,1016.85
2016-12-15T02:07:09.374Z,1016.84
2016-12-15T02:08:09.309Z,1016.87
2016-12-15T02:09:09.358Z,1016.9
2016-12-15T02:10:09.323Z,1016.86
2016-12-15T02:11:09.725Z,1016.83
2016-12-15T02:12:09.745Z,1016.87
2016-12-15T02:13:09.845Z,1016.88
2016-12-15T02:14:09.605Z,1016.83
2016-12-15T02:15:09.410Z,1016.84
2016-12-15T02:16:09.508Z,1016.86
2016-12-15T02:17:09.449Z,1016.85
2016-12-15T02:18:09.438Z,1016.87
2016-12-15T02:19:09.393Z,1016.84
2016-12-15T02:20:09.405Z,1016.84
2016-12-15T02:21:09.449Z,1016.79
2016-12-15T02:22:09.539Z,1016.81
2016-12-15T02:23:09.731Z,1016.78
2016-12-15T02:24:10.014Z,1016.81
2016-12-15T02:25:09.519Z,1016.8
2016-12-15T02:26:09.591Z,1016.82
2016-12-15T02:27:09.481Z,1016.78
2016-12-15T02:28:09.563Z,1016.79
2016-12-15T02:29:09.523Z,1016.74
2016-12-15T02:30:09.635Z,1016.77
2016-12-15T02:31:09.708Z,1016.79
2016-12-15T02:32:09.670Z,1016.77
2016-12-15T02:33:09.544Z,1016.77
2016-12-15T02:34:09.633Z,1016.76
2016-12-15T02:35:10.022Z,1016.74
2016-12-15T02:36:10.146Z,1016.72
2016-12-15T02:37:09.844Z,1016.76
2016-12-15T02:38:09.939Z,1016.74
2016-12-15T02:39:09.786Z,1016.74
2016-12-15T02:40:09.779Z,1016.73
2016-12-15T02:41:09.767Z,1016.72
2016-12-15T02:42:09.717Z,1016.72
2016-12-15T02:43:09.982Z,1016.74
2016-12-15T02:44:09.722Z,1016.73
2016-12-15T02:45:09.837Z,1016.71
2016-12-15T02:46:09.714Z,1016.72
2016-12-15T02:47:09.898Z,1016.73
2016-12-15T02:48:09.873Z,1016.74
2016-12-15T02:49:09.847Z,1016.72
2016-12-15T02:50:10.127Z,1016.72
2016-12-15T02:51:09.921Z,1016.71
2016-12-15T02:52:10.054Z,1016.73
2016-12-15T02:53:09.925Z,1016.72
2016-12-15T02:54:09.897Z,1016.76
2016-12-15T02:55:10.061Z,1016.72
2016-12-15T02:56:10.059Z,1016.72
2016-12-15T02:57:10.372Z,1016.76
2016-12-15T02:58:09.998Z,1016.73
2016-12-15T02:59:10.410Z,1016.72
2016-12-15T03:00:10.094Z,1016.75
2016-12-15T03:01:10.305Z,1016.73
2016-12-15T03:02:10.008Z,1016.71
2016-12-15T03:03:09.992Z,1016.7
2016-12-15T03:04:10.103Z,1016.73
2016-12-15T03:05:10.221Z,1016.76
2016-12-15T03:06:10.260Z,1016.73
2016-12-15T03:07:10.068Z,1016.73
2016-12-15T03:08:10.407Z,1016.72
2016-12-15T03:09:10.265Z,1016.72
2016-12-15T03:10:10.233Z,1016.76
2016-12-15T03:11:10.396Z,1016.69
2016-12-15T03:12:10.179Z,1016.7
2016-12-15T03:13:10.201Z,1016.73
2016-12-15T03:14:10.166Z,1016.73
2016-12-15T03:15:10.218Z,1016.75
2016-12-15T03:16:10.540Z,1016.75
2016-12-15T03:17:10.356Z,1016.75
2016-12-15T03:18:10.714Z,1016.78
2016-12-15T03:19:10.357Z,1016.75
2016-12-15T03:20:10.302Z,1016.77
2016-12-15T03:21:10.348Z,1016.77
2016-12-15T03:22:10.274Z,1016.77
2016-12-15T03:23:10.381Z,1016.76
2016-12-15T03:24:10.345Z,1016.79
2016-12-15T03:25:10.515Z,1016.78
2016-12-15T03:26:10.438Z,1016.81
2016-12-15T03:27:13.497Z,1016.8
2016-12-15T03:28:10.434Z,1016.82
2016-12-15T03:29:10.622Z,1016.81
2016-12-15T03:30:11.093Z,1016.83
2016-12-15T03:31:10.771Z,1016.84
2016-12-15T03:32:10.698Z,1016.84
2016-12-15T03:33:10.803Z,1016.85
2016-12-15T03:34:10.591Z,1016.82
2016-12-15T03:35:10.739Z,1016.86
2016-12-15T03:36:10.801Z,1016.88
2016-12-15T03:37:10.717Z,1016.9
2016-12-15T03:38:10.611Z,1016.9
2016-12-15T03:39:11.040Z,1016.94
2016-12-15T03:40:10.891Z,1016.92
2016-12-15T03:41:10.763Z,1016.9
2016-12-15T03:42:10.646Z,1016.91
2016-12-15T03:43:10.918Z,1016.91
2016-12-15T03:44:11.013Z,1016.92
2016-12-15T03:45:10.725Z,1016.91
2016-12-15T03:46:10.634Z,1016.91
2016-12-15T03:47:10.869Z,1016.89
2016-12-15T03:48:10.778Z,1016.86
2016-12-15T03:49:10.794Z,1016.89
2016-12-15T03:50:10.865Z,1016.89
2016-12-15T03:51:10.946Z,1016.92
2016-12-15T03:52:11.047Z,1016.92
2016-12-15T03:53:10.999Z,1016.87
2016-12-15T03:54:10.969Z,1016.86
2016-12-15T03:55:11.148Z,1016.87
2016-12-15T03:56:10.913Z,1016.88
2016-12-15T03:57:10.858Z,1016.88
2016-12-15T03:58:10.840Z,1016.87
2016-12-15T03:59:10.947Z,1016.84
2016-12-15T04:00:10.847Z,1016.85
2016-12-15T04:01:11.434Z,1016.87
2016-12-15T04:02:10.963Z,1016.89
2016-12-15T04:03:10.950Z,1016.89
2016-12-15T04:04:11.036Z,1016.86
2016-12-15T04:05:11.013Z,1016.84
2016-12-15T04:06:11.310Z,1016.81
2016-12-15T04:07:11.173Z,1016.85
2016-12-15T04:08:11.305Z,1016.8
2016-12-15T04:09:11.091Z,1016.78
2016-12-15T04:10:11.182Z,1016.77
2016-12-15T04:11:11.338Z,1016.8
2016-12-15T04:12:11.241Z,1016.76
2016-12-15T04:13:11.367Z,1016.75
2016-12-15T04:14:11.225Z,1016.78
2016-12-15T04:15:11.416Z,1016.77
2016-12-15T04:16:11.189Z,1016.75
2016-12-15T04:17:11.512Z,1016.77
2016-12-15T04:18:11.524Z,1016.75
2016-12-15T04:19:11.368Z,1016.78
2016-12-15T04:20:11.269Z,1016.77
2016-12-15T04:21:11.525Z,1016.76
2016-12-15T04:22:11.313Z,1016.72
2016-12-15T04:23:11.275Z,1016.75
2016-12-15T04:24:11.251Z,1016.73
2016-12-15T04:25:11.296Z,1016.76
2016-12-15T04:26:11.406Z,1016.77
2016-12-15T04:27:12.122Z,1016.78
2016-12-15T04:28:11.513Z,1016.8
2016-12-15T04:29:11.533Z,1016.8
2016-12-15T04:30:11.796Z,1016.81
2016-12-15T04:31:11.635Z,1016.78
2016-12-15T04:32:11.559Z,1016.79
2016-12-15T04:33:11.443Z,1016.79
2016-12-15T04:34:11.496Z,1016.79
2016-12-15T04:35:11.581Z,1016.76
2016-12-15T04:36:11.564Z,1016.81
2016-12-15T04:37:11.599Z,1016.79
2016-12-15T04:38:11.737Z,1016.76
2016-12-15T04:39:11.740Z,1016.75
2016-12-15T04:40:11.498Z,1016.77
2016-12-15T04:41:11.896Z,1016.76
2016-12-15T04:42:11.665Z,1016.78
2016-12-15T04:43:11.817Z,1016.78
2016-12-15T04:44:11.928Z,1016.76
2016-12-15T04:45:11.691Z,1016.78
2016-12-15T04:46:11.703Z,1016.75
2016-12-15T04:47:11.837Z,1016.75
2016-12-15T04:48:11.775Z,1016.77
2016-12-15T04:49:11.658Z,1016.78
2016-12-15T04:50:11.877Z,1016.73
2016-12-15T04:51:11.808Z,1016.79
2016-12-15T04:52:11.826Z,1016.79
2016-12-15T04:53:11.819Z,1016.84
2016-12-15T04:54:11.745Z,1016.81
2016-12-15T04:55:12.208Z,1016.82
2016-12-15T04:56:11.839Z,1016.84
2016-12-15T04:57:12.054Z,1016.84
2016-12-15T04:58:12.155Z,1016.82
2016-12-15T04:59:12.100Z,1016.8
2016-12-15T05:00:12.083Z,1016.79
2016-12-15T05:01:12.015Z,1016.8
2016-12-15T05:02:12.007Z,1016.76
2016-12-15T05:03:11.863Z,1016.75
2016-12-15T05:04:11.849Z,1016.77
2016-12-15T05:05:11.994Z,1016.75
2016-12-15T05:06:11.965Z,1016.75
2016-12-15T05:07:11.879Z,1016.74
2016-12-15T05:08:11.963Z,1016.74
2016-12-15T05:09:12.370Z,1016.77
2016-12-15T05:10:12.008Z,1016.76
2016-12-15T05:11:12.124Z,1016.79
2016-12-15T05:12:12.564Z,1016.78
2016-12-15T05:13:12.400Z,1016.77
2016-12-15T05:14:12.091Z,1016.83
2016-12-15T05:15:12.327Z,1016.8
2016-12-15T05:16:12.208Z,1016.84
2016-12-15T05:17:12.314Z,1016.84
2016-12-15T05:18:12.116Z,1016.88
2016-12-15T05:19:12.345Z,1016.88
2016-12-15T05:20:12.313Z,1016.92
2016-12-15T05:21:12.609Z,1016.92
2016-12-15T05:22:12.641Z,1016.9
2016-12-15T05:23:12.480Z,1016.91
2016-12-15T05:24:12.288Z,1016.92
2016-12-15T05:25:12.639Z,1016.91
2016-12-15T05:26:12.294Z,1016.88
2016-12-15T05:27:12.704Z,1016.92
2016-12-15T05:28:12.488Z,1016.88
2016-12-15T05:29:12.613Z,1016.89
2016-12-15T05:30:12.940Z,1016.94
2016-12-15T05:31:12.605Z,1016.94
2016-12-15T05:32:12.559Z,1016.94
2016-12-15T05:33:12.371Z,1016.96
2016-12-15T05:34:12.800Z,1017
2016-12-15T05:35:13.294Z,1017.01
2016-12-15T05:36:12.735Z,1017
2016-12-15T05:37:12.716Z,1017
2016-12-15T05:38:12.667Z,1016.99
2016-12-15T05:39:12.668Z,1017.02
2016-12-15T05:40:12.624Z,1017
2016-12-15T05:41:12.697Z,1016.99
2016-12-15T05:42:12.609Z,1017.05
2016-12-15T05:43:12.792Z,1017.05
2016-12-15T05:44:12.889Z,1017.05
2016-12-15T05:45:12.663Z,1017.05
2016-12-15T05:46:12.581Z,1017.07
2016-12-15T05:47:12.624Z,1017.09
2016-12-15T05:48:12.586Z,1017.1
2016-12-15T05:49:12.600Z,1017.09
2016-12-15T05:50:12.825Z,1017.12
2016-12-15T05:51:12.891Z,1017.13
2016-12-15T05:52:12.763Z,1017.12
2016-12-15T05:53:12.864Z,1017.12
2016-12-15T05:54:13.329Z,1017.1
2016-12-15T05:55:12.738Z,1017.13
2016-12-15T05:56:12.803Z,1017.14
2016-12-15T05:57:12.740Z,1017.1
2016-12-15T05:58:12.927Z,1017.12
2016-12-15T05:59:12.770Z,1017.16
2016-12-15T06:00:13.264Z,1017.15
2016-12-15T06:01:12.784Z,1017.16
2016-12-15T06:02:13.368Z,1017.17
2016-12-15T06:03:13.560Z,1017.17
2016-12-15T06:04:13.220Z,1017.16
2016-12-15T06:05:13.557Z,1017.17
2016-12-15T06:06:12.932Z,1017.17
2016-12-15T06:07:13.366Z,1017.15
2016-12-15T06:08:13.387Z,1017.16
2016-12-15T06:09:12.922Z,1017.2
2016-12-15T06:10:12.819Z,1017.16
2016-12-15T06:11:12.855Z,1017.19
2016-12-15T06:12:13.157Z,1017.18
2016-12-15T06:13:12.906Z,1017.25
2016-12-15T06:14:13.160Z,1017.23
2016-12-15T06:15:13.462Z,1017.23
2016-12-15T06:16:13.234Z,1017.22
2016-12-15T06:17:12.998Z,1017.19
2016-12-15T06:18:13.494Z,1017.14
2016-12-15T06:19:13.313Z,1017.14
2016-12-15T06:20:13.792Z,1017.19
2016-12-15T06:21:13.269Z,1017.19
2016-12-15T06:22:13.325Z,1017.17
2016-12-15T06:23:13.542Z,1017.13
2016-12-15T06:24:13.723Z,1017.19
2016-12-15T06:25:13.189Z,1017.18
2016-12-15T06:26:13.952Z,1017.22
2016-12-15T06:27:13.673Z,1017.19
2016-12-15T06:28:13.493Z,1017.2
2016-12-15T06:29:13.214Z,1017.18
2016-12-15T06:30:13.269Z,1017.18
2016-12-15T06:31:13.459Z,1017.23
2016-12-15T06:32:13.338Z,1017.24
2016-12-15T06:33:14.146Z,1017.23
2016-12-15T06:34:13.274Z,1017.25
2016-12-15T06:35:13.732Z,1017.21
2016-12-15T06:36:13.573Z,1017.23
2016-12-15T06:37:13.604Z,1017.27
2016-12-15T06:38:13.361Z,1017.26
2016-12-15T06:39:13.641Z,1017.22
2016-12-15T06:40:13.877Z,1017.21
2016-12-15T06:41:13.484Z,1017.22
2016-12-15T06:42:13.530Z,1017.2
2016-12-15T06:43:13.686Z,1017.21
2016-12-15T06:44:13.270Z,1017.2
2016-12-15T06:46:13.402Z,1017.23
2016-12-15T06:47:13.618Z,1017.19
2016-12-15T06:48:13.418Z,1017.23
2016-12-15T06:49:13.996Z,1017.25
2016-12-15T06:50:13.949Z,1017.27
2016-12-15T06:51:13.914Z,1017.27
2016-12-15T06:52:13.519Z,1017.27
2016-12-15T06:53:13.905Z,1017.28
2016-12-15T06:54:13.622Z,1017.27
2016-12-15T06:55:13.659Z,1017.33
2016-12-15T06:56:13.676Z,1017.28
2016-12-15T06:57:13.646Z,1017.3
2016-12-15T06:58:13.843Z,1017.25
2016-12-15T06:59:13.575Z,1017.32
2016-12-15T07:00:13.827Z,1017.32
2016-12-15T07:01:14.310Z,1017.31
2016-12-15T07:02:14.138Z,1017.37
2016-12-15T07:03:13.938Z,1017.36
2016-12-15T07:04:13.823Z,1017.37
2016-12-15T07:05:13.895Z,1017.41
2016-12-15T07:06:14.005Z,1017.4
2016-12-15T07:07:13.861Z,1017.41
2016-12-15T07:08:13.777Z,1017.4
2016-12-15T07:09:13.922Z,1017.41
2016-12-15T07:10:14.273Z,1017.4
2016-12-15T07:11:13.981Z,1017.46
2016-12-15T07:12:14.031Z,1017.43
2016-12-15T07:13:14.164Z,1017.46
2016-12-15T07:14:14.142Z,1017.47
2016-12-15T07:15:13.911Z,1017.5
2016-12-15T07:16:13.837Z,1017.45
2016-12-15T07:17:14.613Z,1017.49
2016-12-15T07:18:13.944Z,1017.51
2016-12-15T07:19:14.064Z,1017.51
2016-12-15T07:20:14.220Z,1017.54
2016-12-15T07:21:13.995Z,1017.54
2016-12-15T07:22:13.912Z,1017.55
2016-12-15T07:23:13.932Z,1017.55
2016-12-15T07:24:13.932Z,1017.55
2016-12-15T07:25:14.198Z,1017.61
2016-12-15T07:26:14.111Z,1017.6
2016-12-15T07:27:14.175Z,1017.62
2016-12-15T07:28:14.345Z,1017.62
2016-12-15T07:29:14.117Z,1017.63
2016-12-15T07:30:14.078Z,1017.67
2016-12-15T07:31:14.124Z,1017.67
2016-12-15T07:32:14.334Z,1017.62
2016-12-15T07:33:14.395Z,1017.69
2016-12-15T07:34:14.212Z,1017.62
2016-12-15T07:35:14.616Z,1017.66
2016-12-15T07:36:14.493Z,1017.66
2016-12-15T07:37:14.174Z,1017.61
2016-12-15T07:38:14.526Z,1017.63
2016-12-15T07:39:14.222Z,1017.63
2016-12-15T07:40:14.401Z,1017.63
2016-12-15T07:41:14.587Z,1017.61
2016-12-15T07:42:14.575Z,1017.68
2016-12-15T07:43:14.380Z,1017.68
2016-12-15T07:44:14.408Z,1017.67
2016-12-15T07:45:14.281Z,1017.72
2016-12-15T07:46:14.362Z,1017.71
2016-12-15T07:47:14.366Z,1017.71
2016-12-15T07:48:14.734Z,1017.7
2016-12-15T07:49:14.354Z,1017.71
2016-12-15T07:50:14.455Z,1017.72
2016-12-15T07:51:16.485Z,1017.73
2016-12-15T07:52:14.519Z,1017.74
2016-12-15T07:53:14.435Z,1017.73
2016-12-15T07:54:14.905Z,1017.72
2016-12-15T07:55:14.478Z,1017.65
2016-12-15T07:56:14.777Z,1017.7
2016-12-15T07:57:14.868Z,1017.69
2016-12-15T07:58:14.454Z,1017.72
2016-12-15T07:59:14.622Z,1017.76
2016-12-15T08:00:14.521Z,1017.74
2016-12-15T08:01:14.711Z,1017.76
2016-12-15T08:02:14.549Z,1017.76
2016-12-15T08:03:14.538Z,1017.72
2016-12-15T08:04:14.559Z,1017.69
2016-12-15T08:05:14.554Z,1017.76
2016-12-15T08:06:15.070Z,1017.77
2016-12-15T08:07:14.693Z,1017.74
2016-12-15T08:08:14.831Z,1017.75
2016-12-15T08:09:14.918Z,1017.75
2016-12-15T08:10:14.598Z,1017.72
2016-12-15T08:11:14.689Z,1017.74
2016-12-15T08:12:14.929Z,1017.77
2016-12-15T08:13:14.724Z,1017.75
2016-12-15T08:14:14.916Z,1017.74
2016-12-15T08:15:14.768Z,1017.75
2016-12-15T08:16:14.777Z,1017.73
2016-12-15T08:17:15.055Z,1017.66
2016-12-15T08:18:14.748Z,1017.71
2016-12-15T08:19:14.988Z,1017.74
2016-12-15T08:20:14.908Z,1017.72
2016-12-15T08:21:15.121Z,1017.77
2016-12-15T08:22:15.117Z,1017.77
2016-12-15T08:23:14.859Z,1017.75
2016-12-15T08:24:14.925Z,1017.76
2016-12-15T08:25:14.917Z,1017.78
2016-12-15T08:26:14.880Z,1017.75
2016-12-15T08:27:15.035Z,1017.8
2016-12-15T08:28:14.936Z,1017.76
2016-12-15T08:29:15.043Z,1017.76
2016-12-15T08:30:14.909Z,1017.78
2016-12-15T08:31:15.019Z,1017.76
2016-12-15T08:32:14.961Z,1017.79
2016-12-15T08:33:15.015Z,1017.81
2016-12-15T08:34:14.966Z,1017.82
2016-12-15T08:35:15.207Z,1017.8
2016-12-15T08:36:15.594Z,1017.84
2016-12-15T08:37:15.013Z,1017.86
2016-12-15T08:38:15.350Z,1017.83
2016-12-15T08:39:14.995Z,1017.81
2016-12-15T08:40:15.154Z,1017.85
2016-12-15T08:41:15.195Z,1017.83
2016-12-15T08:42:15.077Z,1017.85
2016-12-15T08:43:15.246Z,1017.82
2016-12-15T08:44:15.107Z,1017.84
2016-12-15T08:45:15.495Z,1017.84
2016-12-15T08:46:15.189Z,1017.82
2016-12-15T08:47:15.232Z,1017.82
2016-12-15T08:48:15.199Z,1017.82
2016-12-15T08:49:15.523Z,1017.89
2016-12-15T08:50:15.230Z,1017.88
2016-12-15T08:51:15.278Z,1017.87
2016-12-15T08:52:15.354Z,1017.87
2016-12-15T08:53:15.781Z,1017.88
2016-12-15T08:54:15.394Z,1017.85
2016-12-15T08:58:16.478Z,1017.89
2016-12-15T09:00:16.271Z,1017.87
2016-12-15T09:07:35.327Z,1017.95
2016-12-15T09:08:15.441Z,1017.88
2016-12-15T09:16:15.605Z,1017.96
2016-12-15T09:24:15.663Z,1017.99
2016-12-15T09:37:15.942Z,1017.88
2016-12-15T09:40:15.901Z,1017.9
2016-12-15T09:42:15.952Z,1017.88
2016-12-15T09:43:15.999Z,1017.87
2016-12-15T09:47:21.529Z,1017.86
2016-12-15T09:52:16.445Z,1017.9
2016-12-15T09:55:16.130Z,1017.9
2016-12-15T09:58:34.382Z,1017.85
2016-12-15T10:01:16.347Z,1017.89
2016-12-15T10:03:22.472Z,1017.93
2016-12-15T10:15:16.464Z,1017.95
2016-12-15T10:17:16.443Z,1017.92
2016-12-15T10:20:16.716Z,1017.92
2016-12-15T10:22:16.535Z,1017.86
2016-12-15T10:25:17.800Z,1017.88
2016-12-15T10:32:17.555Z,1017.78
2016-12-15T10:35:18.363Z,1017.75
2016-12-15T10:38:21.372Z,1017.73
2016-12-15T10:45:16.912Z,1017.76
2016-12-15T10:46:16.910Z,1017.75
2016-12-15T10:50:16.973Z,1017.71
2016-12-15T10:53:18.651Z,1017.7
2016-12-15T10:59:17.186Z,1017.73
2016-12-15T11:04:17.243Z,1017.77
2016-12-15T11:15:17.360Z,1017.67
2016-12-15T11:17:25.359Z,1017.65
2016-12-15T11:25:49.329Z,1017.55
2016-12-15T11:31:47.788Z,1017.53
2016-12-15T11:36:48.784Z,1017.46
2016-12-15T11:39:49.089Z,1017.46
2016-12-15T11:45:48.077Z,1017.47
2016-12-15T11:52:48.155Z,1017.35
2016-12-15T11:56:48.254Z,1017.36
2016-12-15T11:57:48.202Z,1017.35
2016-12-15T12:03:48.314Z,1017.27
2016-12-15T12:05:48.381Z,1017.23
2016-12-15T12:07:48.334Z,1017.22
2016-12-15T12:10:48.426Z,1017.25
2016-12-15T12:12:48.417Z,1017.23
2016-12-15T12:14:48.562Z,1017.18
2016-12-15T12:15:50.369Z,1017.16
2016-12-15T12:21:48.645Z,1017.12
2016-12-15T12:27:53.604Z,1017.09
2016-12-15T12:40:48.865Z,1016.94
2016-12-15T12:48:49.091Z,1016.85
2016-12-15T12:52:49.126Z,1016.81
2016-12-15T12:58:49.083Z,1016.81
2016-12-15T13:01:49.359Z,1016.77
2016-12-15T13:22:50.264Z,1016.71
2016-12-15T13:25:49.560Z,1016.73
2016-12-15T13:33:04.399Z,1016.66
2016-12-15T13:43:35.896Z,1016.56
2016-12-15T13:53:30.351Z,1016.53
2016-12-15T13:59:32.033Z,1016.51
2016-12-15T14:00:30.795Z,1016.54
2016-12-15T14:01:30.400Z,1016.56
2016-12-15T14:02:30.409Z,1016.57
2016-12-15T14:03:30.717Z,1016.56
2016-12-15T14:04:30.748Z,1016.58
2016-12-15T14:05:30.538Z,1016.56
2016-12-15T14:06:30.470Z,1016.52
2016-12-15T14:07:30.589Z,1016.58
2016-12-15T14:08:30.706Z,1016.53
2016-12-15T14:09:30.836Z,1016.55
2016-12-15T14:10:30.775Z,1016.5
2016-12-15T14:11:30.621Z,1016.51
2016-12-15T14:12:30.693Z,1016.51
2016-12-15T14:13:30.674Z,1016.52
2016-12-15T14:14:30.774Z,1016.53
2016-12-15T14:15:30.984Z,1016.53
2016-12-15T14:16:30.783Z,1016.48
2016-12-15T14:17:30.763Z,1016.52
2016-12-15T14:18:31.026Z,1016.53
2016-12-15T14:19:30.799Z,1016.53
2016-12-15T14:20:30.808Z,1016.5
2016-12-15T14:21:30.911Z,1016.52
2016-12-15T14:22:30.777Z,1016.56
2016-12-15T14:23:30.729Z,1016.56
2016-12-15T14:24:30.890Z,1016.54
2016-12-15T14:25:31.118Z,1016.58
2016-12-15T14:26:30.882Z,1016.52
2016-12-15T14:27:30.841Z,1016.5
2016-12-15T14:28:31.068Z,1016.49
2016-12-15T14:29:30.824Z,1016.53
2016-12-15T14:30:30.926Z,1016.49
2016-12-15T14:31:31.011Z,1016.47
2016-12-15T14:32:31.085Z,1016.48
2016-12-15T14:33:30.973Z,1016.5
2016-12-15T14:34:31.004Z,1016.54
2016-12-15T14:35:31.198Z,1016.5
2016-12-15T14:36:31.094Z,1016.51
2016-12-15T14:37:31.045Z,1016.49
2016-12-15T14:38:31.178Z,1016.5
2016-12-15T14:39:31.092Z,1016.5
2016-12-15T14:40:31.138Z,1016.49
2016-12-15T14:41:31.107Z,1016.5
2016-12-15T14:42:31.139Z,1016.47
2016-12-15T14:43:31.218Z,1016.45
2016-12-15T14:44:31.121Z,1016.45
2016-12-15T14:45:31.313Z,1016.49
2016-12-15T14:46:31.092Z,1016.47
2016-12-15T14:47:31.395Z,1016.49
2016-12-15T14:48:31.172Z,1016.52
2016-12-15T14:49:31.512Z,1016.48
2016-12-15T14:50:31.211Z,1016.5
2016-12-15T14:51:31.246Z,1016.51
2016-12-15T14:52:31.448Z,1016.5
2016-12-15T14:53:31.360Z,1016.46
2016-12-15T14:54:31.449Z,1016.46
2016-12-15T14:55:31.402Z,1016.48
2016-12-15T14:56:31.649Z,1016.49
2016-12-15T14:57:31.276Z,1016.48
2016-12-15T14:58:31.336Z,1016.47
2016-12-15T14:59:31.365Z,1016.47
2016-12-15T15:01:31.359Z,1016.49
2016-12-15T15:02:31.402Z,1016.49
2016-12-15T15:03:31.415Z,1016.46
2016-12-15T15:04:31.919Z,1016.47
2016-12-15T15:05:31.484Z,1016.47
2016-12-15T15:07:31.625Z,1016.51
2016-12-15T15:08:31.449Z,1016.53
2016-12-15T15:09:31.693Z,1016.48
2016-12-15T15:10:31.612Z,1016.49
2016-12-15T15:11:31.834Z,1016.48
2016-12-15T15:12:32.046Z,1016.47
2016-12-15T15:13:32.167Z,1016.48
2016-12-15T15:14:31.798Z,1016.5
2016-12-15T15:15:31.969Z,1016.5
2016-12-15T15:16:31.756Z,1016.46
2016-12-15T15:17:31.755Z,1016.47
2016-12-15T15:19:32.482Z,1016.48
2016-12-15T15:20:31.700Z,1016.47
2016-12-15T15:21:31.742Z,1016.49
2016-12-15T15:22:31.689Z,1016.48
2016-12-15T15:23:31.783Z,1016.47
2016-12-15T15:24:31.737Z,1016.47
2016-12-15T15:25:31.850Z,1016.48
2016-12-15T15:26:32.535Z,1016.47
2016-12-15T15:27:31.865Z,1016.53
2016-12-15T15:28:32.642Z,1016.51
2016-12-15T15:29:31.999Z,1016.51
2016-12-15T15:30:32.259Z,1016.48
2016-12-15T15:31:32.160Z,1016.49
2016-12-15T15:32:32.108Z,1016.5
2016-12-15T15:33:32.168Z,1016.44
2016-12-15T15:34:32.132Z,1016.51
2016-12-15T15:35:32.395Z,1016.44
2016-12-15T15:36:32.067Z,1016.44
2016-12-15T15:37:32.032Z,1016.5
2016-12-15T15:38:32.744Z,1016.48
2016-12-15T15:39:32.701Z,1016.47
2016-12-15T15:40:32.253Z,1016.45
2016-12-15T15:41:32.181Z,1016.44
2016-12-15T15:42:32.700Z,1016.44
2016-12-15T15:43:32.386Z,1016.46
2016-12-15T15:44:32.632Z,1016.42
2016-12-15T15:45:32.487Z,1016.48
2016-12-15T15:46:32.381Z,1016.52
2016-12-15T15:47:32.359Z,1016.48
2016-12-15T15:48:32.820Z,1016.49
2016-12-15T15:49:32.424Z,1016.48
2016-12-15T15:50:32.409Z,1016.47
2016-12-15T15:51:32.350Z,1016.48
2016-12-15T15:52:32.294Z,1016.48
2016-12-15T15:53:32.559Z,1016.44
2016-12-15T15:54:32.419Z,1016.43
2016-12-15T15:55:32.353Z,1016.42
2016-12-15T15:56:33.445Z,1016.45
2016-12-15T15:57:32.863Z,1016.48
2016-12-15T15:58:32.487Z,1016.43
2016-12-15T15:59:32.489Z,1016.48
2016-12-15T16:00:32.396Z,1016.47
2016-12-15T16:01:32.534Z,1016.48
2016-12-15T16:02:32.501Z,1016.5
2016-12-15T16:03:33.099Z,1016.48
2016-12-15T16:04:32.619Z,1016.52
2016-12-15T16:05:32.447Z,1016.54
2016-12-15T16:06:33.144Z,1016.49
2016-12-15T16:07:32.980Z,1016.5
2016-12-15T16:08:32.502Z,1016.54
2016-12-15T16:09:32.614Z,1016.55
2016-12-15T16:10:32.761Z,1016.52
2016-12-15T16:11:32.740Z,1016.53
2016-12-15T16:12:32.665Z,1016.47
2016-12-15T16:13:32.783Z,1016.48
2016-12-15T16:14:33.097Z,1016.53
2016-12-15T16:15:32.473Z,1016.5
2016-12-15T16:16:32.981Z,1016.49
2016-12-15T16:17:33.486Z,1016.5